Time;durP1;ratioP1;P1;durP2;ratioP2;P2;SDS_P1;SDS_P2;PMS_P1;PMS_P2;Temp;Humidity;BMP_temperature;BMP_pressure;BME280_temperature;BME280_humidity;BME280_pressure;Samples;Min_cycle;Max_cycle;Signal;HPM_P1;HPM_P2
2021/06/02 00:00:10;;;;;;;3.45;2.80;;;20.30;64.50;;;;;;5108258;28;20034;-39
2021/06/02 00:02:47;;;;;;;4.57;3.40;;;20.30;64.60;;;;;;5108621;28;20028;-39
2021/06/02 00:05:14;;;;;;;4.25;3.58;;;20.20;64.90;;;;;;5107785;28;20030;-39
2021/06/02 00:07:41;;;;;;;4.88;3.38;;;20.20;65.00;;;;;;5107362;28;20077;-40
2021/06/02 00:10:09;;;;;;;4.28;3.40;;;20.10;65.20;;;;;;5107472;28;20063;-39
2021/06/02 00:12:35;;;;;;;5.20;3.55;;;20.10;65.40;;;;;;5108047;28;20035;-39
2021/06/02 00:15:02;;;;;;;3.75;2.95;;;20.00;65.80;;;;;;5107415;28;20500;-38
2021/06/02 00:17:28;;;;;;;3.92;3.20;;;19.90;65.80;;;;;;5107695;28;20024;-40
2021/06/02 00:19:54;;;;;;;5.13;3.70;;;19.80;66.10;;;;;;5106816;28;20112;-37
2021/06/02 00:22:20;;;;;;;3.53;3.22;;;19.70;66.30;;;;;;5107588;28;20042;-40
2021/06/02 00:24:48;;;;;;;5.07;3.97;;;19.60;66.60;;;;;;5106831;28;20112;-39
2021/06/02 00:27:14;;;;;;;4.43;4.00;;;19.60;67.10;;;;;;5107798;28;20429;-38
2021/06/02 00:29:44;;;;;;;4.13;3.75;;;19.40;67.40;;;;;;5107751;28;20094;-37
2021/06/02 00:32:13;;;;;;;4.60;3.85;;;19.40;67.60;;;;;;5106768;28;20137;-37
2021/06/02 00:34:39;;;;;;;4.47;4.07;;;19.30;67.90;;;;;;5107466;28;20015;-40
2021/06/02 00:37:11;;;;;;;5.25;4.03;;;19.20;68.40;;;;;;5107529;28;20093;-39
2021/06/02 00:39:40;;;;;;;4.35;3.92;;;19.20;68.70;;;;;;5107032;28;20059;-39
2021/06/02 00:42:06;;;;;;;5.93;5.07;;;19.10;69.60;;;;;;5107498;28;20036;-39
2021/06/02 00:44:32;;;;;;;5.45;4.95;;;19.00;69.30;;;;;;5107522;28;20440;-38
2021/06/02 00:46:59;;;;;;;7.07;5.03;;;19.00;69.80;;;;;;5106736;28;20126;-37
2021/06/02 00:49:25;;;;;;;4.78;4.30;;;18.90;70.60;;;;;;5107240;28;20442;-39
2021/06/02 00:52:02;;;;;;;5.78;5.00;;;18.90;70.90;;;;;;5107576;28;20339;-39
2021/06/02 00:54:33;;;;;;;5.65;4.93;;;18.80;71.40;;;;;;5107510;28;20023;-39
2021/06/02 00:57:21;;;;;;;7.85;4.78;;;18.80;71.90;;;;;;5095698;28;20454;-38
2021/06/02 00:59:56;;;;;;;6.18;4.80;;;18.70;72.30;;;;;;5106603;28;20106;-39
2021/06/02 01:02:23;;;;;;;6.78;5.20;;;18.70;72.60;;;;;;5107010;28;20073;-38
2021/06/02 01:04:54;;;;;;;6.97;5.07;;;18.60;73.00;;;;;;5106802;28;20022;-39
2021/06/02 01:07:22;;;;;;;7.33;5.13;;;18.60;73.30;;;;;;5096044;28;20467;-38
2021/06/02 01:09:51;;;;;;;6.05;5.05;;;18.50;73.60;;;;;;5107581;28;20078;-38
2021/06/02 01:12:19;;;;;;;6.50;5.55;;;18.50;73.60;;;;;;5107466;28;20020;-39
2021/06/02 01:14:45;;;;;;;6.95;5.10;;;18.50;74.40;;;;;;5107612;28;20077;-39
2021/06/02 01:17:15;;;;;;;7.38;5.47;;;18.50;74.60;;;;;;5107890;28;20016;-39
2021/06/02 01:19:44;;;;;;;6.40;5.20;;;18.40;75.00;;;;;;5107776;28;20074;-37
2021/06/02 01:22:14;;;;;;;7.85;5.40;;;18.40;75.10;;;;;;5107104;28;20060;-36
2021/06/02 01:24:42;;;;;;;6.32;5.68;;;18.30;75.60;;;;;;5108210;28;20039;-40
2021/06/02 01:27:10;;;;;;;7.78;6.70;;;18.30;76.10;;;;;;5107507;28;20058;-39
2021/06/02 01:29:40;;;;;;;8.48;5.97;;;18.30;77.00;;;;;;5107828;28;20072;-40
2021/06/02 01:32:17;;;;;;;7.93;6.50;;;18.30;77.20;;;;;;5107533;28;20106;-39
2021/06/02 01:35:13;;;;;;;10.07;6.28;;;18.30;77.90;;;;;;5091109;28;20028;-39
2021/06/02 01:37:50;;;;;;;7.40;5.70;;;18.20;78.10;;;;;;5111561;28;20020;-39
2021/06/02 01:40:58;;;;;;;7.28;5.65;;;18.20;78.40;;;;;;5111784;28;20036;-39
2021/06/02 01:43:53;;;;;;;6.72;6.03;;;18.20;78.60;;;;;;5112088;28;20035;-39
2021/06/02 01:46:56;;;;;;;8.35;5.88;;;18.10;78.80;;;;;;5111896;27;20035;-38
2021/06/02 01:49:21;;;;;;;;;;;18.20;79.30;;;;;;5111877;28;20027;-38
2021/06/02 01:52:05;;;;;;;8.48;5.80;;;18.20;79.50;;;;;;5111205;28;20266;-41
2021/06/02 01:54:43;;;;;;;8.30;6.47;;;18.10;79.70;;;;;;5112219;28;20489;-40
2021/06/02 01:57:30;;;;;;;9.77;6.80;;;18.10;80.40;;;;;;5109810;28;20412;-40
2021/06/02 02:00:01;;;;;;;8.57;7.05;;;18.10;81.30;;;;;;5110330;28;20114;-39
2021/06/02 02:02:57;;;;;;;8.27;6.28;;;18.10;81.50;;;;;;5110400;28;20023;-40
2021/06/02 02:05:40;;;;;;;7.25;6.50;;;18.10;81.80;;;;;;5111095;28;20286;-38
2021/06/02 02:08:45;;;;;;;7.80;6.65;;;18.10;82.00;;;;;;5110269;28;20030;-40
2021/06/02 02:11:29;;;;;;;8.55;6.22;;;18.20;82.30;;;;;;5089660;28;20055;-40
2021/06/02 02:14:22;;;;;;;7.55;6.38;;;18.20;82.70;;;;;;5109883;28;20024;-40
2021/06/02 02:17:00;;;;;;;8.10;6.90;;;18.20;82.90;;;;;;5109702;28;20038;-40
2021/06/02 02:19:46;;;;;;;7.50;6.28;;;18.20;83.00;;;;;;5107814;28;20143;-40
2021/06/02 02:22:27;;;;;;;9.38;5.82;;;18.20;83.10;;;;;;5108764;28;20016;-41
2021/06/02 02:25:11;;;;;;;8.05;6.78;;;18.20;83.40;;;;;;5109593;28;20485;-41
2021/06/02 02:27:49;;;;;;;9.13;6.32;;;18.20;83.40;;;;;;5109932;28;20027;-41
2021/06/02 02:30:47;;;;;;;8.05;6.43;;;18.20;83.30;;;;;;5100422;28;20023;-40
2021/06/02 02:33:15;;;;;;;7.18;6.00;;;18.20;83.30;;;;;;5109959;28;20096;-40
2021/06/02 02:35:46;;;;;;;7.63;5.82;;;18.30;83.30;;;;;;5109683;28;20084;-40
2021/06/02 02:38:36;;;;;;;6.30;5.70;;;18.30;83.30;;;;;;5109234;28;20119;-40
2021/06/02 02:41:32;;;;;;;8.25;5.38;;;18.30;83.40;;;;;;5109862;28;20024;-40
2021/06/02 02:44:22;;;;;;;7.88;5.07;;;18.30;83.30;;;;;;5108541;28;20016;-39
2021/06/02 02:46:59;;;;;;;6.30;5.57;;;18.30;83.30;;;;;;5109202;28;20023;-40
2021/06/02 02:49:44;;;;;;;7.28;5.78;;;18.30;83.40;;;;;;5109744;28;20062;-40
2021/06/02 02:52:19;;;;;;;7.93;5.10;;;18.30;83.50;;;;;;5088855;28;20067;-40
2021/06/02 02:55:07;;;;;;;5.95;5.35;;;18.30;83.50;;;;;;5105377;28;20026;-40
2021/06/02 02:58:15;;;;;;;6.55;4.97;;;18.20;83.60;;;;;;5089346;28;20016;-40
2021/06/02 03:01:00;;;;;;;6.03;5.25;;;18.20;83.70;;;;;;5022148;28;20117;-37
2021/06/02 03:04:03;;;;;;;5.53;5.03;;;18.20;83.80;;;;;;5106888;28;20043;-40
2021/06/02 03:06:35;;;;;;;6.67;5.43;;;18.10;83.80;;;;;;5065089;28;20055;-40
2021/06/02 03:09:23;;;;;;;7.68;5.00;;;18.10;83.90;;;;;;5108865;28;20288;-39
2021/06/02 03:12:06;;;;;;;6.15;5.13;;;18.10;84.10;;;;;;5101497;28;20138;-39
2021/06/02 03:14:58;;;;;;;5.88;5.20;;;18.10;84.30;;;;;;5109080;28;20050;-40
2021/06/02 03:17:31;;;;;;;7.00;5.18;;;18.00;84.50;;;;;;5109400;28;20110;-39
2021/06/02 03:20:16;;;;;;;7.82;5.78;;;18.00;84.60;;;;;;5108496;28;20024;-40
2021/06/02 03:22:57;;;;;;;7.13;5.78;;;18.00;84.90;;;;;;5109083;28;20020;-38
2021/06/02 03:25:26;;;;;;;6.30;5.70;;;18.00;85.00;;;;;;5109250;28;20030;-39
2021/06/02 03:28:03;;;;;;;6.97;5.90;;;17.90;85.10;;;;;;5109004;28;20431;-40
2021/06/02 03:30:43;;;;;;;6.32;5.30;;;17.90;85.40;;;;;;5109469;28;20489;-40
2021/06/02 03:33:24;;;;;;;6.03;5.32;;;17.90;85.50;;;;;;5108677;28;20470;-40
2021/06/02 03:36:10;;;;;;;6.43;5.82;;;17.90;85.60;;;;;;5108273;28;20027;-40
2021/06/02 03:38:54;;;;;;;6.57;5.85;;;17.90;85.80;;;;;;5109013;28;20088;-40
2021/06/02 03:41:57;;;;;;;6.00;5.40;;;17.80;86.50;;;;;;5108653;28;20031;-39
2021/06/02 03:44:58;;;;;;;6.47;5.47;;;17.90;86.00;;;;;;5089205;28;20115;-40
2021/06/02 03:47:43;;;;;;;7.03;6.18;;;17.80;86.10;;;;;;5106605;28;20034;-39
2021/06/02 03:50:19;;;;;;;8.32;6.50;;;17.80;86.30;;;;;;5107710;28;20022;-40
2021/06/02 03:53:16;;;;;;;6.40;5.80;;;17.80;86.70;;;;;;5109128;28;20038;-37
2021/06/02 03:56:18;;;;;;;6.18;5.57;;;17.80;86.90;;;;;;5086357;28;20119;-39
2021/06/02 03:59:13;;;;;;;6.30;5.70;;;17.80;87.00;;;;;;5107924;27;20184;-40
2021/06/02 04:02:05;;;;;;;6.78;5.85;;;17.80;87.00;;;;;;5108397;28;20051;-39
2021/06/02 04:04:36;;;;;;;9.60;5.47;;;17.80;87.10;;;;;;5108390;28;20055;-38
2021/06/02 04:07:06;;;;;;;6.78;6.05;;;17.70;87.20;;;;;;5107935;28;20027;-39
2021/06/02 04:10:05;;;;;;;8.23;6.20;;;17.70;87.40;;;;;;5107795;28;20447;-40
2021/06/02 04:12:39;;;;;;;8.57;6.30;;;17.70;87.80;;;;;;5107928;28;20027;-39
2021/06/02 04:15:06;;;;;;;8.77;6.43;;;17.70;87.80;;;;;;5108592;28;20051;-40
2021/06/02 04:17:33;;;;;;;6.25;5.35;;;17.70;88.20;;;;;;5107859;28;20131;-40
2021/06/02 04:20:03;;;;;;;8.45;6.60;;;17.70;88.20;;;;;;5107417;28;20032;-40
2021/06/02 04:22:31;;;;;;;9.85;7.47;;;17.80;88.60;;;;;;5108357;28;20111;-40
2021/06/02 04:24:58;;;;;;;8.70;7.28;;;17.70;89.00;;;;;;5107118;28;20111;-40
2021/06/02 04:27:24;;;;;;;7.85;6.95;;;17.70;89.20;;;;;;5107855;28;20074;-40
2021/06/02 04:29:51;;;;;;;8.45;7.20;;;17.70;89.60;;;;;;5108198;28;20028;-39
2021/06/02 04:32:18;;;;;;;8.93;6.80;;;17.70;89.90;;;;;;5106859;28;20020;-42
2021/06/02 04:34:44;;;;;;;8.68;7.35;;;17.70;90.10;;;;;;5107592;28;20546;-39
2021/06/02 04:37:11;;;;;;;9.40;7.80;;;17.70;90.30;;;;;;5107155;28;20107;-40
2021/06/02 04:39:39;;;;;;;8.85;7.95;;;17.70;90.50;;;;;;5108013;28;20031;-40
2021/06/02 04:42:08;;;;;;;8.75;7.85;;;17.70;90.60;;;;;;5107424;28;20420;-40
2021/06/02 04:44:34;;;;;;;8.32;7.15;;;17.70;90.60;;;;;;5107408;28;20051;-40
2021/06/02 04:47:01;;;;;;;8.75;7.43;;;17.70;90.70;;;;;;5107109;28;20020;-41
2021/06/02 04:49:43;;;;;;;8.60;6.75;;;17.70;90.70;;;;;;5107619;28;20024;-40
2021/06/02 04:52:56;;;;;;;8.20;7.05;;;17.70;90.80;;;;;;5107590;28;20028;-39
2021/06/02 04:55:43;;;;;;;8.57;6.85;;;17.70;90.80;;;;;;5100266;28;20050;-39
2021/06/02 04:58:49;;;;;;;7.70;6.57;;;17.80;90.80;;;;;;5107793;28;20127;-39
2021/06/02 05:01:39;;;;;;;8.15;6.38;;;17.70;90.80;;;;;;5107847;28;20059;-40
2021/06/02 05:04:36;;;;;;;9.10;7.82;;;17.80;90.90;;;;;;5107461;28;20019;-39
2021/06/02 05:07:21;;;;;;;9.65;7.22;;;17.80;91.00;;;;;;5087311;28;20107;-38
2021/06/02 05:09:50;;;;;;;9.88;7.50;;;17.80;91.10;;;;;;5106367;28;20073;-38
2021/06/02 05:12:52;;;;;;;8.32;7.43;;;17.80;91.10;;;;;;5107818;28;20131;-41
2021/06/02 05:15:49;;;;;;;9.55;6.55;;;17.80;91.00;;;;;;5108447;28;20129;-40
2021/06/02 05:19:03;;;;;;;8.48;7.55;;;17.90;91.00;;;;;;5108133;28;20031;-39
2021/06/02 05:24:14;;;;;;;8.77;7.38;;;17.90;90.90;;;;;;5107047;28;19908;-40
2021/06/02 05:27:23;;;;;;;7.55;6.68;;;17.90;90.90;;;;;;5107125;28;20028;-40
2021/06/02 05:30:27;;;;;;;7.70;6.63;;;18.00;91.00;;;;;;5106960;28;20104;-40
2021/06/02 05:33:21;;;;;;;9.23;7.30;;;18.00;90.90;;;;;;5087151;28;20088;-40
2021/06/02 05:36:04;;;;;;;7.03;6.32;;;18.10;91.20;;;;;;5106154;28;20081;-38
2021/06/02 05:39:09;;;;;;;7.15;6.20;;;18.10;90.90;;;;;;5106760;28;20494;-41
2021/06/02 05:41:57;;;;;;;8.02;6.65;;;18.20;90.90;;;;;;5096284;28;20028;-39
2021/06/02 05:44:38;;;;;;;9.95;6.40;;;18.20;90.80;;;;;;5107504;28;20057;-40
2021/06/02 05:47:43;;;;;;;6.70;5.90;;;18.30;90.70;;;;;;5106071;28;20051;-39
2021/06/02 05:50:30;;;;;;;8.90;6.30;;;18.30;90.70;;;;;;5106562;28;20041;-40
2021/06/02 05:53:17;;;;;;;6.70;5.57;;;18.40;90.70;;;;;;5106817;28;20108;-39
2021/06/02 05:55:59;;;;;;;7.35;6.40;;;18.40;90.70;;;;;;5106227;28;20174;-40
2021/06/02 05:58:40;;;;;;;7.10;5.38;;;18.40;90.60;;;;;;5086886;28;20175;-39
2021/06/02 06:01:51;;;;;;;7.70;6.30;;;18.50;90.60;;;;;;5102858;28;20034;-40
2021/06/02 06:04:38;;;;;;;6.47;5.60;;;18.50;90.50;;;;;;5106539;28;20028;-39
2021/06/02 06:07:15;;;;;;;6.95;6.10;;;18.60;90.40;;;;;;5101171;28;20019;-38
2021/06/02 06:10:02;;;;;;;6.65;6.03;;;18.60;90.40;;;;;;5104927;28;20521;-40
2021/06/02 06:12:46;;;;;;;7.53;6.20;;;18.70;90.40;;;;;;5105709;28;20031;-39
2021/06/02 06:15:41;;;;;;;6.60;5.88;;;18.70;90.40;;;;;;5119147;28;20445;-39
2021/06/02 06:18:30;;;;;;;8.25;6.20;;;18.80;90.40;;;;;;5098232;28;20085;-40
2021/06/02 06:21:01;;;;;;;7.97;6.80;;;18.80;90.40;;;;;;5108117;28;20027;-40
2021/06/02 06:23:56;;;;;;;6.97;5.70;;;18.80;90.30;;;;;;5110315;28;20473;-41
2021/06/02 06:26:34;;;;;;;5.95;5.45;;;18.90;90.60;;;;;;5110115;28;20066;-40
2021/06/02 06:29:14;;;;;;;8.05;6.40;;;18.90;90.30;;;;;;5109765;28;20150;-40
2021/06/02 06:31:43;;;;;;;6.60;5.55;;;18.90;90.30;;;;;;5109551;28;20084;-38
2021/06/02 06:34:14;;;;;;;7.35;6.28;;;19.00;90.30;;;;;;5110095;28;20024;-39
2021/06/02 06:36:41;;;;;;;8.70;6.35;;;19.00;90.30;;;;;;5109498;28;20138;-37
2021/06/02 06:39:21;;;;;;;8.73;6.15;;;19.00;90.30;;;;;;5109616;28;20032;-40
2021/06/02 06:41:48;;;;;;;6.28;5.28;;;19.10;90.30;;;;;;5109826;28;20039;-39
2021/06/02 06:44:15;;;;;;;7.13;5.88;;;19.10;90.20;;;;;;5109786;28;20035;-40
2021/06/02 06:46:44;;;;;;;7.80;6.80;;;19.10;90.20;;;;;;5109675;28;20033;-40
2021/06/02 06:49:17;;;;;;;7.50;6.32;;;19.20;90.10;;;;;;5109830;28;20049;-39
2021/06/02 06:51:52;;;;;;;6.85;6.07;;;19.20;90.00;;;;;;5108929;28;20179;-39
2021/06/02 06:54:19;;;;;;;7.78;5.93;;;19.20;90.00;;;;;;5109105;28;20054;-39
2021/06/02 06:56:47;;;;;;;8.35;6.18;;;19.30;90.00;;;;;;5112054;27;20348;-40
2021/06/02 06:59:14;;;;;;;6.75;5.90;;;19.30;89.90;;;;;;5106807;28;20050;-39
2021/06/02 07:01:40;;;;;;;8.05;6.80;;;19.40;90.00;;;;;;5107292;28;20102;-37
2021/06/02 07:04:10;;;;;;;6.70;6.10;;;19.40;89.80;;;;;;5109538;27;20024;-39
2021/06/02 07:06:37;;;;;;;7.15;5.65;;;19.50;89.70;;;;;;5091053;28;20047;-35
2021/06/02 07:09:04;;;;;;;6.15;5.35;;;19.50;89.60;;;;;;5109039;28;20024;-39
2021/06/02 07:11:36;;;;;;;7.78;5.95;;;19.50;89.50;;;;;;5110220;28;20028;-39
2021/06/02 07:14:02;;;;;;;6.85;6.03;;;19.50;89.40;;;;;;5107708;28;20031;-38
2021/06/02 07:16:28;;;;;;;5.97;5.30;;;19.60;89.50;;;;;;5109612;28;20035;-39
2021/06/02 07:18:57;;;;;;;6.03;5.47;;;19.60;89.50;;;;;;5108280;28;20032;-38
2021/06/02 07:21:23;;;;;;;8.98;6.28;;;19.70;89.50;;;;;;5109777;28;20167;-38
2021/06/02 07:23:49;;;;;;;7.40;6.60;;;19.70;89.40;;;;;;5109216;28;20114;-41
2021/06/02 07:26:14;;;;;;;6.22;5.25;;;19.70;89.20;;;;;;5109158;28;20426;-41
2021/06/02 07:28:41;;;;;;;7.25;6.00;;;19.80;89.10;;;;;;5108908;28;20024;-40
2021/06/02 07:31:08;;;;;;;6.03;5.43;;;19.90;89.10;;;;;;5108500;28;20020;-40
2021/06/02 07:33:35;;;;;;;7.00;5.63;;;19.90;89.00;;;;;;5108645;28;20039;-40
2021/06/02 07:36:01;;;;;;;7.28;5.85;;;19.90;88.90;;;;;;5108817;28;20347;-40
2021/06/02 07:38:27;;;;;;;9.48;6.50;;;20.00;88.90;;;;;;5109173;28;20344;-40
2021/06/02 07:40:53;;;;;;;6.65;5.93;;;20.00;88.90;;;;;;5108757;28;20451;-39
2021/06/02 07:43:19;;;;;;;6.55;5.93;;;20.10;88.70;;;;;;5109026;28;20016;-48
2021/06/02 07:45:46;;;;;;;7.30;6.38;;;20.20;88.60;;;;;;5108577;28;20470;-40
2021/06/02 07:48:12;;;;;;;6.32;5.72;;;20.20;88.60;;;;;;5108176;28;20446;-40
2021/06/02 07:50:40;;;;;;;6.80;6.07;;;20.20;88.60;;;;;;5108409;28;20091;-42
2021/06/02 07:53:06;;;;;;;6.20;5.63;;;20.20;88.50;;;;;;5108342;28;20517;-36
2021/06/02 07:55:32;;;;;;;6.30;5.55;;;20.30;88.50;;;;;;5108791;28;20028;-38
2021/06/02 07:57:58;;;;;;;6.47;5.85;;;20.30;88.40;;;;;;5107993;28;20016;-40
2021/06/02 08:00:24;;;;;;;7.20;5.75;;;20.40;88.30;;;;;;5108714;28;20393;-40
2021/06/02 08:02:50;;;;;;;8.75;5.82;;;20.40;88.20;;;;;;5108049;28;20094;-40
2021/06/02 08:05:16;;;;;;;10.90;6.75;;;20.50;88.00;;;;;;5107892;28;20095;-38
2021/06/02 08:07:42;;;;;;;7.75;6.00;;;20.50;87.90;;;;;;5108627;28;20122;-37
2021/06/02 08:10:09;;;;;;;5.97;5.38;;;20.60;87.70;;;;;;5107658;28;20146;-39
2021/06/02 08:12:34;;;;;;;6.93;5.88;;;20.70;87.50;;;;;;5108299;28;20124;-39
2021/06/02 08:15:00;;;;;;;6.60;5.72;;;20.70;87.20;;;;;;5107565;28;20112;-39
2021/06/02 08:17:25;;;;;;;6.18;5.43;;;20.70;87.00;;;;;;5107556;28;20047;-40
2021/06/02 08:19:51;;;;;;;7.85;6.07;;;20.70;86.90;;;;;;5105114;28;20530;-40
2021/06/02 08:22:16;;;;;;;7.97;5.93;;;20.80;86.80;;;;;;5107948;28;20024;-42
2021/06/02 08:24:42;;;;;;;8.82;5.90;;;20.80;86.50;;;;;;5107968;28;20026;-41
2021/06/02 08:27:12;;;;;;;6.10;5.50;;;20.90;86.50;;;;;;5108113;28;20084;-41
2021/06/02 08:29:38;;;;;;;6.05;5.50;;;20.90;86.40;;;;;;5108230;28;20058;-40
2021/06/02 08:32:04;;;;;;;7.45;6.03;;;21.00;86.20;;;;;;5114648;27;20062;-42
2021/06/02 08:34:29;;;;;;;6.70;5.97;;;21.00;86.10;;;;;;5108093;28;20051;-40
2021/06/02 08:36:55;;;;;;;7.13;5.75;;;21.10;86.00;;;;;;5107892;28;20491;-39
2021/06/02 08:39:21;;;;;;;5.63;5.13;;;21.10;85.80;;;;;;5108118;28;20527;-39
2021/06/02 08:41:48;;;;;;;5.88;5.28;;;21.20;85.80;;;;;;5107189;28;20038;-41
2021/06/02 08:44:16;;;;;;;7.63;5.85;;;21.20;85.70;;;;;;5107104;28;20366;-40
2021/06/02 08:46:46;;;;;;;6.55;5.32;;;21.30;85.70;;;;;;5106960;28;20072;-39
2021/06/02 08:49:13;;;;;;;5.88;5.38;;;21.30;85.70;;;;;;5107607;28;20031;-39
2021/06/02 08:51:39;;;;;;;7.45;5.70;;;21.40;85.70;;;;;;5107606;28;20027;-39
2021/06/02 08:54:05;;;;;;;6.03;5.25;;;21.40;85.50;;;;;;5107752;28;20359;-40
2021/06/02 08:56:33;;;;;;;7.40;5.72;;;21.50;85.40;;;;;;5108250;28;20124;-38
2021/06/02 08:59:02;;;;;;;6.40;5.68;;;21.60;85.20;;;;;;5106941;28;20379;-37
2021/06/02 09:01:28;;;;;;;8.07;6.28;;;21.60;85.00;;;;;;5107738;28;20024;-41
2021/06/02 09:03:54;;;;;;;7.20;5.45;;;21.70;84.70;;;;;;5105911;28;20020;-39
2021/06/02 09:06:20;;;;;;;5.50;5.00;;;21.90;84.40;;;;;;5106022;28;20051;-39
2021/06/02 09:08:47;;;;;;;5.63;4.53;;;21.90;83.90;;;;;;5106186;28;20012;-40
2021/06/02 09:11:18;;;;;;;5.72;4.90;;;22.00;83.50;;;;;;5105719;28;20043;-40
2021/06/02 09:13:45;;;;;;;5.80;4.53;;;22.00;83.20;;;;;;5105975;28;20110;-38
2021/06/02 09:16:23;;;;;;;5.97;4.78;;;22.10;83.00;;;;;;5105772;28;20050;-39
2021/06/02 09:19:05;;;;;;;4.78;4.28;;;22.20;82.70;;;;;;5105330;28;20416;-40
2021/06/02 09:21:38;;;;;;;5.68;3.97;;;22.20;82.30;;;;;;5107587;28;20451;-40
2021/06/02 09:24:04;;;;;;;5.68;4.53;;;22.20;82.00;;;;;;5107701;28;20424;-40
2021/06/02 09:26:30;;;;;;;5.50;4.40;;;22.30;81.70;;;;;;5106881;28;20050;-40
2021/06/02 09:29:11;;;;;;;4.90;4.40;;;22.30;81.30;;;;;;5106454;28;20362;-39
2021/06/02 09:31:42;;;;;;;4.15;3.60;;;22.40;81.20;;;;;;5107550;28;20015;-39
2021/06/02 09:34:24;;;;;;;4.63;4.10;;;22.50;81.20;;;;;;5105950;28;20020;-40
2021/06/02 09:36:51;;;;;;;;;;;22.50;80.80;;;;;;5105232;28;20023;-39
2021/06/02 09:39:20;;;;;;;4.13;3.72;;;22.50;80.70;;;;;;5106837;28;19915;-40
2021/06/02 09:41:48;;;;;;;4.60;4.18;;;22.60;80.60;;;;;;5107405;28;20027;-40
2021/06/02 09:44:23;;;;;;;4.25;3.83;;;22.60;80.50;;;;;;5106925;27;20130;-40
2021/06/02 09:47:17;;;;;;;6.00;4.13;;;22.70;80.50;;;;;;5106804;28;20118;-40
2021/06/02 09:49:46;;;;;;;4.03;3.72;;;22.70;80.30;;;;;;5093980;28;20075;-39
2021/06/02 09:52:11;;;;;;;5.32;4.80;;;22.80;80.20;;;;;;5107216;28;20045;-39
2021/06/02 09:54:37;;;;;;;5.40;4.40;;;22.80;80.00;;;;;;5109633;28;20773;-37
2021/06/02 09:57:11;;;;;;;8.77;4.63;;;22.90;79.90;;;;;;5110600;28;20023;-43
2021/06/02 09:59:53;;;;;;;5.10;4.57;;;22.90;79.90;;;;;;5110707;28;20382;-38
2021/06/02 10:02:18;;;;;;;5.45;3.90;;;22.90;79.60;;;;;;5111024;28;20447;-41
2021/06/02 10:04:44;;;;;;;4.88;3.97;;;23.00;79.50;;;;;;5111097;28;20027;-39
2021/06/02 10:07:21;;;;;;;4.18;3.60;;;23.00;79.90;;;;;;5110839;28;20030;-40
2021/06/02 10:09:47;;;;;;;3.78;3.47;;;23.10;78.90;;;;;;5109750;28;20082;-39
2021/06/02 10:12:14;;;;;;;5.40;3.90;;;23.10;78.50;;;;;;5110987;28;20012;-38
2021/06/02 10:14:56;;;;;;;6.55;3.22;;;23.20;77.80;;;;;;5110624;28;20032;-40
2021/06/02 10:17:36;;;;;;;5.63;3.05;;;23.20;77.20;;;;;;5113351;27;20102;-39
2021/06/02 10:20:13;;;;;;;3.20;2.90;;;23.30;76.90;;;;;;5111748;27;20173;-40
2021/06/02 10:22:40;;;;;;;3.00;2.70;;;23.40;76.10;;;;;;5110229;28;20076;-43
2021/06/02 10:25:08;;;;;;;3.15;2.30;;;23.50;74.90;;;;;;5110395;28;20023;-42
2021/06/02 10:27:34;;;;;;;2.50;2.30;;;23.70;74.30;;;;;;5110623;28;20027;-39
2021/06/02 10:30:00;;;;;;;2.33;1.90;;;23.80;73.30;;;;;;5108736;28;20080;-40
2021/06/02 10:32:26;;;;;;;3.03;2.00;;;23.90;72.50;;;;;;5110476;28;20031;-39
2021/06/02 10:34:53;;;;;;;2.47;1.83;;;23.90;72.00;;;;;;5110059;28;20538;-40
2021/06/02 10:37:21;;;;;;;1.80;1.70;;;24.00;71.80;;;;;;5109861;28;20023;-41
2021/06/02 10:40:04;;;;;;;1.88;1.77;;;23.90;71.30;;;;;;5109850;28;20433;-41
2021/06/02 10:42:48;;;;;;;;;;;23.90;71.10;;;;;;5110307;28;20031;-39
2021/06/02 10:45:38;;;;;;;2.22;2.00;;;23.90;71.20;;;;;;5109774;28;19912;-40
2021/06/02 10:48:05;;;;;;;1.77;1.67;;;23.90;70.90;;;;;;5089789;28;20428;-40
2021/06/02 10:50:33;;;;;;;2.22;1.83;;;23.90;70.60;;;;;;5104589;28;20051;-40
2021/06/02 10:53:23;;;;;;;2.05;1.80;;;23.90;70.30;;;;;;5109609;28;20462;-40
2021/06/02 10:55:50;;;;;;;4.40;1.80;;;24.00;70.00;;;;;;5110108;28;20016;-40
2021/06/02 10:58:31;;;;;;;2.33;2.03;;;24.00;69.80;;;;;;5109619;28;20054;-37
2021/06/02 11:01:11;;;;;;;1.92;1.83;;;24.10;68.50;;;;;;5110099;28;20032;-39
2021/06/02 11:03:39;;;;;;;4.03;2.13;;;24.20;67.70;;;;;;5090461;28;20012;-38
2021/06/02 11:06:14;;;;;;;2.00;1.80;;;24.20;66.90;;;;;;5103860;27;20134;-37
2021/06/02 11:08:48;;;;;;;3.17;1.70;;;24.30;66.70;;;;;;5109977;28;20023;-42
2021/06/02 11:11:30;;;;;;;2.17;1.80;;;24.40;66.60;;;;;;5109640;28;20162;-43
2021/06/02 11:14:19;;;;;;;1.80;1.50;;;24.40;66.50;;;;;;5090302;28;20119;-40
2021/06/02 11:16:47;;;;;;;2.60;1.90;;;24.40;66.30;;;;;;5107815;28;20111;-39
2021/06/02 11:19:17;;;;;;;2.47;1.90;;;24.40;66.00;;;;;;5109418;28;20451;-39
2021/06/02 11:21:52;;;;;;;2.40;1.75;;;24.40;65.70;;;;;;5110427;28;20165;-40
2021/06/02 11:24:33;;;;;;;1.75;1.60;;;24.50;65.40;;;;;;5089783;28;20104;-40
2021/06/02 11:27:14;;;;;;;1.65;1.55;;;24.50;65.30;;;;;;5105386;28;20054;-39
2021/06/02 11:29:51;;;;;;;2.03;1.70;;;24.50;65.30;;;;;;5109507;28;20202;-38
2021/06/02 11:32:27;;;;;;;1.60;1.50;;;24.50;65.20;;;;;;5108825;28;20088;-39
2021/06/02 11:34:54;;;;;;;2.08;1.52;;;24.50;64.60;;;;;;5109452;28;20019;-39
2021/06/02 11:37:23;;;;;;;1.80;1.50;;;24.50;65.30;;;;;;5109052;28;20074;-40
2021/06/02 11:39:54;;;;;;;2.55;1.50;;;24.60;64.60;;;;;;5108882;28;20085;-38
2021/06/02 11:42:25;;;;;;;3.47;1.63;;;24.60;64.00;;;;;;5109280;28;20098;-42
2021/06/02 11:44:56;;;;;;;2.80;1.70;;;24.70;63.20;;;;;;5109255;28;20028;-40
2021/06/02 11:47:22;;;;;;;1.70;1.60;;;24.80;62.80;;;;;;5109066;27;20133;-41
2021/06/02 11:49:48;;;;;;;1.77;1.30;;;24.80;62.70;;;;;;5108790;28;20481;-39
2021/06/02 11:52:16;;;;;;;1.50;1.40;;;24.90;62.50;;;;;;5108715;28;20550;-39
2021/06/02 11:54:58;;;;;;;1.67;1.58;;;24.90;61.90;;;;;;5108177;28;20050;-39
2021/06/02 11:57:25;;;;;;;1.92;1.60;;;25.00;60.20;;;;;;5108919;28;20036;-40
2021/06/02 11:59:55;;;;;;;2.75;1.60;;;25.10;60.20;;;;;;5108698;28;20435;-39
2021/06/02 12:02:21;;;;;;;1.73;1.63;;;25.20;59.90;;;;;;5108715;28;20020;-40
2021/06/02 12:04:47;;;;;;;1.80;1.70;;;25.20;59.60;;;;;;5108325;27;20363;-40
2021/06/02 12:07:26;;;;;;;2.03;1.67;;;25.20;59.40;;;;;;5108236;28;20020;-42
2021/06/02 12:09:57;;;;;;;2.78;1.52;;;25.30;58.90;;;;;;5108255;28;20057;-37
2021/06/02 12:12:24;;;;;;;1.70;1.60;;;25.30;58.90;;;;;;5108186;28;20160;-40
2021/06/02 12:14:53;;;;;;;2.13;1.75;;;25.30;58.60;;;;;;5107942;28;20039;-41
2021/06/02 12:17:25;;;;;;;2.28;1.70;;;25.30;58.40;;;;;;5107994;27;20023;-40
2021/06/02 12:19:51;;;;;;;1.98;1.52;;;25.30;57.80;;;;;;5097171;28;20039;-39
2021/06/02 12:22:19;;;;;;;1.65;1.55;;;25.30;58.20;;;;;;5107337;28;20071;-40
2021/06/02 12:25:03;;;;;;;1.40;1.30;;;25.30;58.50;;;;;;5107644;28;20431;-40
2021/06/02 12:27:28;;;;;;;1.52;1.42;;;25.30;58.60;;;;;;5107165;28;20395;-40
2021/06/02 12:30:28;;;;;;;1.52;1.30;;;25.30;58.90;;;;;;5107054;28;20139;-39
2021/06/02 12:32:56;;;;;;;2.05;1.80;;;25.30;59.10;;;;;;5073127;28;20118;-43
2021/06/02 12:35:36;;;;;;;2.75;1.95;;;25.30;59.00;;;;;;5108631;28;20016;-39
2021/06/02 12:38:12;;;;;;;1.83;1.70;;;25.30;59.00;;;;;;5107017;28;20024;-39
2021/06/02 12:40:40;;;;;;;3.75;1.80;;;25.40;59.00;;;;;;5108045;28;20032;-41
2021/06/02 12:43:13;;;;;;;2.67;1.60;;;25.40;58.70;;;;;;5091590;28;20047;-40
2021/06/02 12:45:39;;;;;;;1.75;1.65;;;25.40;58.90;;;;;;5097201;28;20390;-40
2021/06/02 12:48:07;;;;;;;1.60;1.50;;;25.50;59.20;;;;;;5107345;28;20053;-38
2021/06/02 12:50:34;;;;;;;2.33;1.90;;;25.50;58.90;;;;;;5107698;28;20382;-39
2021/06/02 12:53:00;;;;;;;2.10;1.90;;;25.60;58.70;;;;;;5107751;28;20039;-38
2021/06/02 12:55:25;;;;;;;2.67;1.95;;;25.70;58.60;;;;;;5107987;28;20042;-38
2021/06/02 12:58:00;;;;;;;1.95;1.75;;;25.70;58.60;;;;;;5107757;28;20024;-39
2021/06/02 13:00:26;;;;;;;3.10;1.70;;;25.70;58.70;;;;;;5107409;28;20035;-41
2021/06/02 13:02:51;;;;;;;2.10;1.83;;;25.70;58.40;;;;;;5107845;28;20028;-38
2021/06/02 13:05:17;;;;;;;4.97;2.20;;;25.80;58.00;;;;;;5107027;28;20020;-39
2021/06/02 13:07:43;;;;;;;2.00;1.85;;;25.90;58.00;;;;;;5107248;28;20478;-39
2021/06/02 13:10:12;;;;;;;5.32;1.95;;;25.90;57.90;;;;;;5106774;28;20427;-40
2021/06/02 13:12:48;;;;;;;3.75;1.88;;;25.90;58.00;;;;;;5107012;28;20061;-39
2021/06/02 13:15:32;;;;;;;2.50;1.50;;;26.00;58.20;;;;;;5107050;28;20020;-39
2021/06/02 13:17:58;;;;;;;2.20;2.00;;;26.00;58.40;;;;;;5107056;28;20032;-39
2021/06/02 13:20:36;;;;;;;3.83;2.00;;;26.00;58.30;;;;;;5106880;28;20550;-38
2021/06/02 13:23:34;;;;;;;2.30;1.95;;;26.00;58.00;;;;;;5107195;28;20475;-40
2021/06/02 13:26:08;;;;;;;2.33;1.77;;;26.10;57.80;;;;;;5106319;28;20031;-41
2021/06/02 13:28:44;;;;;;;2.60;1.80;;;26.10;57.80;;;;;;5108823;28;20343;-41
2021/06/02 13:31:11;;;;;;;2.20;2.00;;;26.10;57.90;;;;;;5111554;28;20138;-39